Time;durP1;ratioP1;P1;durP2;ratioP2;P2;SDS_P1;SDS_P2;PMS_P1;PMS_P2;Temp;Humidity;BMP_temperature;BMP_pressure;BME280_temperature;BME280_humidity;BME280_pressure;Samples;Min_cycle;Max_cycle;Signal;HPM_P1;HPM_P2
2021/01/19 00:00:29;;;;;;;8.95;4.90;;;2.20;99.90;;;;;;5082228;28;20467;-66
2021/01/19 00:02:56;;;;;;;14.82;4.60;;;2.20;99.90;;;;;;5088043;28;20729;-66
2021/01/19 00:05:22;;;;;;;9.57;4.88;;;2.10;99.90;;;;;;5089987;28;20048;-66
2021/01/19 00:07:49;;;;;;;9.88;4.75;;;2.10;99.90;;;;;;5092332;28;20050;-66
2021/01/19 00:10:16;;;;;;;10.05;4.75;;;2.00;99.90;;;;;;5091276;28;20441;-67
2021/01/19 00:12:43;;;;;;;11.13;4.80;;;2.10;99.90;;;;;;5091548;28;20526;-66
2021/01/19 00:15:10;;;;;;;9.93;5.13;;;2.10;99.90;;;;;;5089935;28;20494;-67
2021/01/19 00:17:36;;;;;;;12.05;4.85;;;2.10;99.90;;;;;;5089976;28;20409;-66
2021/01/19 00:20:05;;;;;;;12.30;4.90;;;2.10;99.90;;;;;;5089900;28;20039;-66
2021/01/19 00:22:32;;;;;;;9.63;5.22;;;2.20;99.90;;;;;;5092246;28;20455;-66
2021/01/19 00:25:00;;;;;;;10.55;4.78;;;2.20;99.90;;;;;;5085869;28;20047;-66
2021/01/19 00:27:27;;;;;;;9.07;4.90;;;2.20;99.90;;;;;;5090998;28;20206;-66
2021/01/19 00:29:53;;;;;;;9.02;4.53;;;2.10;99.90;;;;;;5090450;28;20048;-66
2021/01/19 00:32:19;;;;;;;12.07;4.80;;;2.10;99.90;;;;;;5089969;28;20060;-66
2021/01/19 00:34:46;;;;;;;8.43;4.55;;;2.10;99.90;;;;;;5092135;28;20047;-66
2021/01/19 00:37:12;;;;;;;7.68;4.40;;;2.10;99.90;;;;;;5089417;28;20054;-65
2021/01/19 00:39:39;;;;;;;10.70;4.70;;;2.10;99.90;;;;;;5091176;28;20075;-66
2021/01/19 00:42:06;;;;;;;8.45;4.47;;;2.10;99.90;;;;;;5074075;28;20506;-66
2021/01/19 00:44:32;;;;;;;9.60;3.95;;;2.10;99.90;;;;;;5105532;28;20048;-67
2021/01/19 00:46:58;;;;;;;8.48;4.28;;;2.10;99.90;;;;;;5071135;28;20137;-66
2021/01/19 00:49:25;;;;;;;11.38;4.63;;;2.10;99.90;;;;;;5098145;28;20048;-67
2021/01/19 00:51:51;;;;;;;8.57;4.60;;;2.10;99.90;;;;;;5091198;28;20478;-66
2021/01/19 00:54:19;;;;;;;9.88;4.50;;;2.10;99.90;;;;;;5096526;28;20410;-66
2021/01/19 00:56:45;;;;;;;10.07;4.82;;;2.10;99.90;;;;;;5072898;28;20052;-66
2021/01/19 00:59:13;;;;;;;11.27;4.57;;;2.10;99.90;;;;;;5089886;28;20425;-67
2021/01/19 01:01:49;;;;;;;8.73;4.53;;;2.10;99.90;;;;;;5085187;28;20410;-67
2021/01/19 01:04:16;;;;;;;8.07;4.22;;;2.10;99.90;;;;;;5090231;28;20514;-66
2021/01/19 01:06:43;;;;;;;8.93;4.75;;;2.10;99.90;;;;;;5090006;28;20117;-66
2021/01/19 01:09:10;;;;;;;8.75;4.03;;;2.10;99.90;;;;;;5090970;28;20056;-66
2021/01/19 01:11:43;;;;;;;12.10;4.13;;;2.10;99.90;;;;;;5072974;28;20458;-67
2021/01/19 01:14:11;;;;;;;7.68;4.25;;;2.10;99.90;;;;;;5089811;28;20052;-66
2021/01/19 01:16:39;;;;;;;6.63;4.00;;;2.10;99.90;;;;;;5090849;28;20040;-67
2021/01/19 01:19:07;;;;;;;9.10;3.95;;;2.10;99.90;;;;;;5090808;28;20130;-66
2021/01/19 01:21:37;;;;;;;7.60;4.20;;;2.10;99.90;;;;;;5088384;28;20048;-65
2021/01/19 01:24:05;;;;;;;12.52;4.32;;;2.10;99.90;;;;;;5089861;28;20078;-65
2021/01/19 01:26:32;;;;;;;7.68;3.80;;;2.10;99.90;;;;;;5089076;28;20707;-66
2021/01/19 01:28:59;;;;;;;6.93;4.30;;;2.10;99.90;;;;;;5090505;28;20133;-66
2021/01/19 01:31:25;;;;;;;7.80;4.10;;;2.10;99.90;;;;;;5090768;28;20127;-65
2021/01/19 01:33:52;;;;;;;6.88;3.58;;;2.10;99.90;;;;;;5086285;28;20059;-66
2021/01/19 01:36:18;;;;;;;7.63;3.47;;;2.10;99.90;;;;;;5081117;28;20059;-66
2021/01/19 01:38:45;;;;;;;12.60;4.38;;;2.10;99.90;;;;;;5088444;28;20059;-66
2021/01/19 01:41:22;;;;;;;6.70;3.50;;;2.00;99.90;;;;;;5089522;28;20044;-67
2021/01/19 01:43:49;;;;;;;7.30;3.75;;;2.00;99.90;;;;;;5089011;28;20062;-66
2021/01/19 01:46:17;;;;;;;7.78;4.20;;;2.10;99.90;;;;;;5089451;28;20417;-66
2021/01/19 01:48:46;;;;;;;9.50;4.15;;;2.10;99.90;;;;;;5090458;28;20052;-66
2021/01/19 01:51:13;;;;;;;7.25;3.38;;;2.00;99.90;;;;;;5092232;28;20074;-66
2021/01/19 01:53:41;;;;;;;7.10;3.80;;;2.10;99.90;;;;;;5085101;28;20584;-67
2021/01/19 01:56:09;;;;;;;8.27;3.80;;;2.10;99.90;;;;;;5088599;28;20111;-67
2021/01/19 01:58:37;;;;;;;8.82;3.58;;;2.10;99.90;;;;;;5089825;28;20051;-67
2021/01/19 02:01:04;;;;;;;9.20;4.25;;;2.10;99.90;;;;;;5083128;28;20269;-67
2021/01/19 02:03:32;;;;;;;6.88;3.50;;;2.10;99.90;;;;;;5089853;28;20074;-67
2021/01/19 02:05:59;;;;;;;9.70;3.42;;;2.10;99.90;;;;;;5088821;28;20052;-67
2021/01/19 02:09:07;;;;;;;7.28;3.58;;;2.10;99.90;;;;;;5089012;28;20136;-67
2021/01/19 02:11:53;;;;;;;7.03;3.47;;;2.10;99.90;;;;;;5088616;28;20545;-67
2021/01/19 02:14:39;;;;;;;6.57;3.50;;;2.10;99.90;;;;;;5090042;28;20075;-67
2021/01/19 02:17:46;;;;;;;8.10;3.50;;;2.10;99.90;;;;;;5073158;28;20048;-67
2021/01/19 02:20:15;;;;;;;8.93;4.05;;;2.10;99.90;;;;;;5089271;28;20044;-66
2021/01/19 02:23:13;;;;;;;9.98;3.53;;;2.00;99.90;;;;;;5083366;28;20520;-67
2021/01/19 02:25:59;;;;;;;6.95;3.20;;;2.00;99.90;;;;;;5088470;28;20042;-67
2021/01/19 02:28:43;;;;;;;6.57;3.38;;;2.00;99.90;;;;;;5089917;28;20055;-67
2021/01/19 02:31:40;;;;;;;8.15;3.58;;;2.10;99.90;;;;;;5088484;28;20040;-66
2021/01/19 02:34:25;;;;;;;6.88;3.08;;;2.00;99.90;;;;;;5088997;28;20048;-66
2021/01/19 02:37:11;;;;;;;12.27;4.00;;;2.00;99.90;;;;;;5090194;28;20051;-67
2021/01/19 02:39:55;;;;;;;7.63;3.33;;;2.10;99.90;;;;;;5088664;28;20083;-64
2021/01/19 02:42:26;;;;;;;7.93;3.10;;;2.10;99.90;;;;;;5092688;28;20078;-64
2021/01/19 02:44:55;;;;;;;7.10;3.23;;;2.10;99.90;;;;;;5091577;28;20069;-64
2021/01/19 02:47:21;;;;;;;11.35;3.75;;;2.00;99.90;;;;;;5093205;28;20641;-64
2021/01/19 02:49:48;;;;;;;11.95;3.20;;;2.00;99.90;;;;;;5091227;28;20067;-64
2021/01/19 02:52:15;;;;;;;7.05;3.30;;;2.00;99.90;;;;;;5093695;28;20082;-64
2021/01/19 02:54:43;;;;;;;7.47;3.20;;;2.00;99.90;;;;;;5091816;28;20044;-64
2021/01/19 02:57:22;;;;;;;6.75;2.92;;;2.00;99.90;;;;;;5093490;28;20467;-64
2021/01/19 03:00:07;;;;;;;7.35;3.28;;;2.00;99.90;;;;;;5089441;28;20042;-65
2021/01/19 03:02:36;;;;;;;9.07;3.35;;;1.90;99.90;;;;;;5091580;28;20092;-63
2021/01/19 03:05:06;;;;;;;8.43;3.42;;;2.00;99.90;;;;;;5082237;28;20406;-63
2021/01/19 03:07:36;;;;;;;5.63;3.25;;;1.90;99.90;;;;;;5092516;28;21251;-63
2021/01/19 03:10:04;;;;;;;10.02;3.28;;;1.90;99.90;;;;;;5084878;28;20043;-63
2021/01/19 03:12:33;;;;;;;9.15;3.38;;;1.90;99.90;;;;;;5092811;28;20044;-64
2021/01/19 03:15:00;;;;;;;7.82;3.08;;;1.80;99.90;;;;;;5092877;28;20040;-64
2021/01/19 03:17:26;;;;;;;9.02;3.10;;;1.80;99.90;;;;;;5093366;28;20439;-63
2021/01/19 03:19:53;;;;;;;7.47;3.00;;;1.80;99.90;;;;;;5074590;28;20079;-64
2021/01/19 03:22:19;;;;;;;6.05;2.88;;;1.80;99.90;;;;;;5092652;28;20478;-64
2021/01/19 03:24:46;;;;;;;6.38;3.20;;;1.70;99.90;;;;;;5090420;28;20299;-63
2021/01/19 03:27:12;;;;;;;7.88;2.92;;;1.70;99.90;;;;;;5091740;28;20050;-64
2021/01/19 03:29:39;;;;;;;6.53;2.72;;;1.60;99.90;;;;;;5089821;28;20062;-63
2021/01/19 03:32:06;;;;;;;8.32;3.17;;;1.50;99.90;;;;;;5090001;28;20051;-64
2021/01/19 03:34:33;;;;;;;6.97;3.47;;;1.50;99.90;;;;;;5091661;28;20056;-64
2021/01/19 03:37:00;;;;;;;7.32;3.20;;;1.50;99.90;;;;;;5091252;28;20134;-64
2021/01/19 03:39:27;;;;;;;7.15;3.17;;;1.40;99.90;;;;;;5091057;28;20055;-65
2021/01/19 03:41:53;;;;;;;6.45;3.20;;;1.40;99.90;;;;;;5092127;28;20078;-64
2021/01/19 03:44:20;;;;;;;7.05;3.40;;;1.40;99.90;;;;;;5091098;28;20139;-64
2021/01/19 03:46:46;;;;;;;6.03;3.22;;;1.30;99.90;;;;;;5090806;28;20517;-64
2021/01/19 03:49:13;;;;;;;4.55;2.97;;;1.30;99.90;;;;;;5091968;28;20162;-64
2021/01/19 03:51:40;;;;;;;6.65;2.78;;;1.30;99.90;;;;;;5091706;28;20056;-63
2021/01/19 03:54:06;;;;;;;6.00;3.30;;;1.20;99.90;;;;;;5092343;28;20044;-66
2021/01/19 03:56:32;;;;;;;13.98;3.53;;;1.20;99.90;;;;;;5092761;28;20052;-64
2021/01/19 03:58:59;;;;;;;9.23;3.58;;;1.20;99.90;;;;;;5106808;28;20048;-64
2021/01/19 04:01:25;;;;;;;5.50;3.42;;;1.10;99.90;;;;;;5092891;28;20044;-65
2021/01/19 04:03:52;;;;;;;7.30;3.50;;;1.10;99.90;;;;;;5091166;28;20165;-65
2021/01/19 04:06:19;;;;;;;9.48;3.58;;;1.10;99.90;;;;;;5073987;28;20051;-65
2021/01/19 04:08:45;;;;;;;5.78;2.90;;;1.10;99.90;;;;;;5085573;28;20414;-64
2021/01/19 04:11:12;;;;;;;8.18;3.95;;;1.10;99.90;;;;;;5090516;28;20388;-64
2021/01/19 04:13:38;;;;;;;9.52;3.42;;;1.10;99.90;;;;;;5084635;28;20048;-65
2021/01/19 04:16:05;;;;;;;9.27;3.58;;;1.10;99.90;;;;;;5084364;28;20047;-66
2021/01/19 04:18:31;;;;;;;8.65;3.30;;;1.10;99.90;;;;;;5090583;28;20044;-65
2021/01/19 04:20:58;;;;;;;7.85;3.05;;;1.10;99.90;;;;;;5091898;28;20048;-65
2021/01/19 04:23:25;;;;;;;7.50;3.50;;;1.10;99.90;;;;;;5091645;28;20453;-65
2021/01/19 04:25:51;;;;;;;6.30;2.90;;;1.00;99.90;;;;;;5091169;28;20048;-65
2021/01/19 04:28:18;;;;;;;8.65;3.45;;;1.10;99.90;;;;;;5091712;28;20417;-65
2021/01/19 04:30:47;;;;;;;9.23;3.28;;;1.10;99.90;;;;;;5091919;28;20420;-64
2021/01/19 04:33:14;;;;;;;7.07;3.35;;;1.10;99.90;;;;;;5080272;28;20044;-65
2021/01/19 04:35:44;;;;;;;7.15;3.20;;;1.10;99.90;;;;;;5090718;28;20051;-64
2021/01/19 04:38:10;;;;;;;7.05;3.30;;;1.00;99.90;;;;;;5089728;28;20516;-64
2021/01/19 04:40:37;;;;;;;7.95;3.10;;;1.10;99.90;;;;;;5090455;28;20048;-65
2021/01/19 04:43:04;;;;;;;8.60;3.15;;;1.00;99.90;;;;;;5090855;28;20044;-65
2021/01/19 04:45:32;;;;;;;7.82;3.63;;;1.00;99.90;;;;;;5090982;28;20480;-65
2021/01/19 04:48:02;;;;;;;8.35;3.80;;;1.00;99.90;;;;;;5091246;28;20051;-65
2021/01/19 04:50:31;;;;;;;6.75;3.50;;;1.00;99.90;;;;;;5091927;28;20054;-65
2021/01/19 04:52:59;;;;;;;7.07;3.60;;;1.00;99.90;;;;;;5054639;28;20501;-65
2021/01/19 04:55:26;;;;;;;11.13;3.30;;;1.00;99.90;;;;;;5080758;28;20052;-64
2021/01/19 04:58:01;;;;;;;8.02;3.25;;;1.00;99.90;;;;;;5091481;28;20571;-66
2021/01/19 05:00:32;;;;;;;9.63;4.18;;;1.00;99.90;;;;;;5086415;28;20052;-65
2021/01/19 05:03:03;;;;;;;5.82;3.22;;;1.00;99.90;;;;;;5088469;28;20051;-65
2021/01/19 05:05:35;;;;;;;6.97;3.35;;;1.00;99.90;;;;;;5090082;28;20044;-65
2021/01/19 05:08:17;;;;;;;8.50;3.80;;;1.10;99.90;;;;;;5077619;28;20044;-64
2021/01/19 05:11:00;;;;;;;6.38;3.40;;;1.10;99.90;;;;;;5082034;28;20135;-64
2021/01/19 05:13:37;;;;;;;6.70;3.28;;;1.10;99.90;;;;;;5090713;28;20056;-64
2021/01/19 05:16:05;;;;;;;7.15;3.45;;;1.10;99.90;;;;;;5092178;28;20063;-67
2021/01/19 05:18:31;;;;;;;6.35;3.38;;;1.10;99.90;;;;;;5092189;28;20036;-67
2021/01/19 05:21:01;;;;;;;6.20;3.10;;;1.10;99.90;;;;;;5091479;28;20040;-66
2021/01/19 05:23:28;;;;;;;6.72;3.70;;;1.00;99.90;;;;;;5090425;28;20124;-67
2021/01/19 05:25:54;;;;;;;8.98;3.30;;;1.10;99.90;;;;;;5090463;28;20040;-67
2021/01/19 05:28:43;;;;;;;6.22;2.88;;;1.20;99.90;;;;;;5077193;28;20044;-68
2021/01/19 05:31:15;;;;;;;6.50;3.20;;;1.20;99.90;;;;;;5089331;28;20052;-67
2021/01/19 05:33:52;;;;;;;11.70;3.80;;;1.20;99.90;;;;;;5091336;28;20383;-67
2021/01/19 05:36:20;;;;;;;7.95;3.75;;;1.20;99.90;;;;;;5090202;28;20075;-67
2021/01/19 05:38:51;;;;;;;8.95;3.85;;;1.20;99.90;;;;;;5080168;28;20044;-68
2021/01/19 05:41:31;;;;;;;7.25;3.30;;;1.10;99.90;;;;;;5090500;28;20048;-67
2021/01/19 05:44:13;;;;;;;6.28;3.50;;;1.20;99.90;;;;;;5090989;28;20059;-66
2021/01/19 05:46:43;;;;;;;6.00;3.50;;;1.20;99.90;;;;;;5071273;28;20601;-66
2021/01/19 05:49:15;;;;;;;7.70;3.40;;;1.20;99.90;;;;;;5088482;28;20059;-66
2021/01/19 05:51:46;;;;;;;7.30;3.35;;;1.20;99.90;;;;;;5090671;28;20044;-68
2021/01/19 05:54:29;;;;;;;7.68;3.92;;;1.20;99.90;;;;;;5073160;28;20055;-67
2021/01/19 05:57:19;;;;;;;7.53;3.97;;;1.30;99.90;;;;;;5080122;28;20055;-67
2021/01/19 05:59:46;;;;;;;5.72;3.22;;;1.30;99.90;;;;;;5092468;28;20459;-65
2021/01/19 06:02:17;;;;;;;8.30;4.82;;;1.30;99.90;;;;;;5106898;28;20501;-65
2021/01/19 06:04:49;;;;;;;6.77;3.70;;;1.40;99.90;;;;;;5090327;28;20055;-65
2021/01/19 06:07:23;;;;;;;7.10;3.63;;;1.30;99.90;;;;;;5090213;28;20494;-65
2021/01/19 06:09:51;;;;;;;7.60;3.47;;;1.30;99.90;;;;;;5089782;28;20052;-65
2021/01/19 06:12:19;;;;;;;9.05;4.00;;;1.30;99.90;;;;;;5090187;28;20047;-65
2021/01/19 06:14:52;;;;;;;10.35;3.38;;;1.30;99.90;;;;;;5087416;28;20048;-67
2021/01/19 06:17:21;;;;;;;6.70;3.75;;;1.40;99.90;;;;;;5075313;28;20391;-65
2021/01/19 06:19:50;;;;;;;11.50;4.50;;;1.30;99.90;;;;;;5080217;28;20044;-65
2021/01/19 06:22:19;;;;;;;6.72;3.35;;;1.30;99.90;;;;;;5091846;28;20044;-65
2021/01/19 06:24:48;;;;;;;7.45;3.95;;;1.30;99.90;;;;;;5094048;28;20060;-65
2021/01/19 06:27:20;;;;;;;7.40;3.75;;;1.30;99.90;;;;;;5093954;28;20479;-67
2021/01/19 06:29:47;;;;;;;7.45;3.50;;;1.30;99.90;;;;;;5093692;28;20058;-65
2021/01/19 06:32:15;;;;;;;10.10;4.07;;;1.30;99.90;;;;;;5093676;28;20122;-65
2021/01/19 06:34:42;;;;;;;10.05;3.65;;;1.20;99.90;;;;;;5094147;28;20067;-65
2021/01/19 06:37:23;;;;;;;7.88;4.40;;;1.30;99.90;;;;;;5093335;28;20052;-66
2021/01/19 06:39:55;;;;;;;8.77;4.22;;;1.30;99.90;;;;;;5072662;28;20073;-64
2021/01/19 06:42:27;;;;;;;9.95;4.63;;;1.30;99.90;;;;;;5087973;28;20054;-68
2021/01/19 06:45:06;;;;;;;8.17;3.90;;;1.20;99.90;;;;;;5090843;28;20036;-67
2021/01/19 06:47:41;;;;;;;8.50;3.53;;;1.30;99.90;;;;;;5095601;28;20056;-66
2021/01/19 06:50:08;;;;;;;8.15;3.97;;;1.30;99.90;;;;;;5094870;28;20048;-65
2021/01/19 06:52:41;;;;;;;8.77;3.88;;;1.20;99.90;;;;;;5094840;28;20532;-65
2021/01/19 06:55:47;;;;;;;7.32;3.70;;;1.30;99.90;;;;;;5093862;28;20410;-65
2021/01/19 06:58:17;;;;;;;9.50;3.92;;;1.20;99.90;;;;;;5093641;28;20047;-65
2021/01/19 07:00:44;;;;;;;6.63;3.80;;;1.20;99.90;;;;;;5093174;28;20461;-64
2021/01/19 07:03:19;;;;;;;8.93;3.85;;;1.30;99.90;;;;;;5086385;28;20044;-65
2021/01/19 07:06:07;;;;;;;8.88;4.22;;;1.20;99.90;;;;;;5093129;28;20044;-64
2021/01/19 07:09:21;;;;;;;10.70;4.45;;;1.20;99.90;;;;;;5080495;28;20048;-67
2021/01/19 07:12:07;;;;;;;10.43;4.32;;;1.20;99.90;;;;;;5107153;28;20054;-65
2021/01/19 07:14:58;;;;;;;7.95;4.22;;;1.20;99.90;;;;;;5087847;28;20070;-65
2021/01/19 07:17:48;;;;;;;8.93;4.05;;;1.20;99.90;;;;;;5092798;28;20056;-64
2021/01/19 07:20:31;;;;;;;9.57;4.63;;;1.20;99.90;;;;;;5085855;28;20040;-65
2021/01/19 07:23:02;;;;;;;8.63;4.00;;;1.20;99.90;;;;;;5079870;28;20379;-65
2021/01/19 07:25:30;;;;;;;8.55;4.25;;;1.20;99.90;;;;;;5086350;28;20052;-69
2021/01/19 07:27:56;;;;;;;9.05;4.80;;;1.20;99.90;;;;;;5092689;28;20126;-67
2021/01/19 07:30:24;;;;;;;7.43;4.50;;;1.20;99.90;;;;;;5094259;28;20105;-66
2021/01/19 07:32:54;;;;;;;7.18;4.55;;;1.20;99.90;;;;;;5092487;28;20497;-66
2021/01/19 07:35:23;;;;;;;9.90;4.50;;;1.20;99.90;;;;;;5092728;28;20058;-66
2021/01/19 07:38:06;;;;;;;7.90;4.30;;;1.20;99.90;;;;;;5091339;28;20073;-66
2021/01/19 07:40:44;;;;;;;9.40;4.68;;;1.20;99.90;;;;;;5090787;28;20534;-66
2021/01/19 07:43:15;;;;;;;10.38;4.82;;;1.20;99.90;;;;;;5091732;28;20040;-67
2021/01/19 07:45:55;;;;;;;12.48;5.32;;;1.30;99.90;;;;;;5092285;28;20044;-67
2021/01/19 07:48:36;;;;;;;10.30;4.13;;;1.20;99.90;;;;;;5092733;28;20048;-67
2021/01/19 07:51:15;;;;;;;11.10;4.78;;;1.20;99.90;;;;;;5088495;28;20062;-67
2021/01/19 07:53:52;;;;;;;7.55;3.92;;;1.20;99.90;;;;;;5091621;28;20043;-67
2021/01/19 07:56:29;;;;;;;7.80;4.30;;;1.30;99.90;;;;;;5084968;28;20421;-67
2021/01/19 07:58:57;;;;;;;9.30;4.22;;;1.30;99.90;;;;;;5091537;28;20102;-66
2021/01/19 08:01:34;;;;;;;11.02;4.30;;;1.40;99.90;;;;;;5090995;28;20470;-67
2021/01/19 08:04:12;;;;;;;9.98;4.47;;;1.40;99.90;;;;;;5092590;28;20122;-66
2021/01/19 08:06:40;;;;;;;12.00;4.60;;;1.40;99.90;;;;;;5089879;28;20040;-67
2021/01/19 08:09:10;;;;;;;8.70;4.43;;;1.40;99.90;;;;;;5085722;28;20066;-66
2021/01/19 08:11:37;;;;;;;9.13;4.10;;;1.50;99.90;;;;;;5090264;28;20055;-66
2021/01/19 08:14:13;;;;;;;7.75;4.50;;;1.40;99.90;;;;;;5090219;28;20052;-66
2021/01/19 08:16:47;;;;;;;12.27;4.40;;;1.50;99.90;;;;;;5091299;28;20044;-67
2021/01/19 08:19:15;;;;;;;10.98;4.63;;;1.60;99.90;;;;;;5091605;28;20044;-67
2021/01/19 08:21:50;;;;;;;7.93;4.40;;;1.50;99.90;;;;;;5091530;28;20044;-66
2021/01/19 08:24:24;;;;;;;7.95;4.13;;;1.60;99.90;;;;;;5093351;28;20040;-67
2021/01/19 08:26:51;;;;;;;12.00;4.30;;;1.60;99.90;;;;;;5091615;28;20127;-66
2021/01/19 08:29:29;;;;;;;9.23;4.32;;;1.60;99.90;;;;;;5091583;28;20490;-67
2021/01/19 08:31:58;;;;;;;11.18;4.22;;;1.60;99.90;;;;;;5091218;28;20044;-67
2021/01/19 08:34:26;;;;;;;13.27;4.60;;;1.60;99.90;;;;;;5089300;28;20139;-66
2021/01/19 08:36:54;;;;;;;11.50;4.25;;;1.70;99.90;;;;;;5089115;28;20063;-67
2021/01/19 08:39:21;;;;;;;9.75;4.28;;;1.70;99.90;;;;;;5080571;28;20048;-66
2021/01/19 08:41:50;;;;;;;9.95;4.40;;;1.70;99.90;;;;;;5104359;28;20075;-66
2021/01/19 08:44:30;;;;;;;7.50;4.15;;;1.70;99.90;;;;;;5090499;28;20479;-67
2021/01/19 08:46:57;;;;;;;6.72;4.25;;;1.70;99.90;;;;;;5090385;28;20043;-66
2021/01/19 08:49:24;;;;;;;8.20;3.88;;;1.70;99.90;;;;;;5091436;28;20048;-67
2021/01/19 08:51:52;;;;;;;8.93;4.05;;;1.70;99.90;;;;;;5090026;28;20448;-67
2021/01/19 08:54:20;;;;;;;7.60;4.18;;;1.70;99.90;;;;;;5091126;28;20109;-66
2021/01/19 08:56:46;;;;;;;8.50;3.85;;;1.70;99.90;;;;;;5091197;28;20128;-66
2021/01/19 08:59:14;;;;;;;10.27;4.05;;;1.80;99.90;;;;;;5089653;28;20126;-67
2021/01/19 09:01:47;;;;;;;11.85;4.88;;;1.80;99.90;;;;;;5089197;28;20470;-66
2021/01/19 09:04:25;;;;;;;9.77;4.35;;;1.80;99.90;;;;;;5090225;28;20048;-67
2021/01/19 09:06:52;;;;;;;10.02;4.13;;;1.90;99.90;;;;;;5088334;28;20044;-67
2021/01/19 09:09:23;;;;;;;10.82;4.70;;;2.10;99.90;;;;;;5090442;28;20052;-67
2021/01/19 09:11:52;;;;;;;12.55;4.88;;;2.20;99.90;;;;;;5088521;28;20051;-66
2021/01/19 09:14:24;;;;;;;9.77;4.35;;;2.30;99.90;;;;;;5072202;28;20131;-66
2021/01/19 09:16:52;;;;;;;8.70;4.78;;;2.30;99.90;;;;;;5089945;28;20446;-66
2021/01/19 09:19:18;;;;;;;7.10;4.07;;;2.30;99.90;;;;;;5090939;28;20048;-67
2021/01/19 09:21:45;;;;;;;10.77;4.53;;;2.20;99.90;;;;;;5090416;28;20043;-67
2021/01/19 09:24:21;;;;;;;12.15;4.28;;;2.20;99.90;;;;;;5090723;28;20044;-66
2021/01/19 09:27:00;;;;;;;12.57;4.93;;;2.30;99.90;;;;;;5089442;28;20044;-65
2021/01/19 09:29:29;;;;;;;8.98;4.43;;;2.40;99.90;;;;;;5090935;28;20044;-66
2021/01/19 09:32:00;;;;;;;10.77;4.35;;;2.50;99.90;;;;;;5077765;28;20517;-66
2021/01/19 09:34:27;;;;;;;8.50;4.88;;;2.50;99.90;;;;;;5089564;28;20138;-66
2021/01/19 09:36:55;;;;;;;8.45;4.55;;;2.60;99.90;;;;;;5088855;28;20482;-67
2021/01/19 09:39:28;;;;;;;9.50;4.57;;;2.70;99.90;;;;;;5086280;28;20048;-66
2021/01/19 09:42:00;;;;;;;7.40;4.63;;;2.80;99.90;;;;;;5072117;28;20490;-68
2021/01/19 09:44:31;;;;;;;9.77;4.72;;;2.90;99.90;;;;;;5085489;28;20050;-67
2021/01/19 09:47:02;;;;;;;9.10;4.30;;;2.90;99.90;;;;;;5081212;28;20510;-65
2021/01/19 09:49:30;;;;;;;9.30;4.68;;;2.80;99.90;;;;;;5089327;28;20040;-65
2021/01/19 09:52:07;;;;;;;11.40;4.60;;;2.80;99.90;;;;;;5090090;28;20122;-66
2021/01/19 09:54:34;;;;;;;9.30;4.53;;;2.80;99.90;;;;;;5087910;28;20449;-66
2021/01/19 09:57:01;;;;;;;13.15;4.45;;;2.90;99.90;;;;;;5088925;28;20344;-67
2021/01/19 09:59:29;;;;;;;9.82;4.63;;;2.90;99.90;;;;;;5071611;28;20051;-65
2021/01/19 10:01:58;;;;;;;11.82;4.75;;;3.10;99.90;;;;;;5089113;28;20050;-67
2021/01/19 10:04:26;;;;;;;9.95;4.55;;;3.00;99.90;;;;;;5089805;28;20054;-67
2021/01/19 10:07:03;;;;;;;12.50;5.47;;;3.20;99.90;;;;;;5088866;28;20486;-65
2021/01/19 10:09:30;;;;;;;13.45;4.80;;;3.40;99.90;;;;;;5088706;28;20052;-65
2021/01/19 10:12:08;;;;;;;10.27;4.35;;;3.40;99.90;;;;;;5087829;28;20080;-68
2021/01/19 10:14:36;;;;;;;11.95;5.07;;;3.50;99.90;;;;;;5089333;28;20055;-65
2021/01/19 10:17:26;;;;;;;;;;;3.70;99.90;;;;;;5089405;28;20052;-66
2021/01/19 10:20:08;;;;;;;6.63;4.07;;;3.60;99.90;;;;;;5088738;28;19959;-68
2021/01/19 10:22:44;;;;;;;11.82;5.05;;;3.60;99.90;;;;;;5088622;28;20533;-66
2021/01/19 10:25:12;;;;;;;11.90;4.97;;;3.60;99.90;;;;;;5089141;28;20083;-65
2021/01/19 10:27:44;;;;;;;13.57;4.90;;;3.40;99.90;;;;;;5090374;28;20048;-66
2021/01/19 10:30:12;;;;;;;9.55;4.80;;;3.20;99.90;;;;;;5086715;28;20058;-65
2021/01/19 10:32:57;;;;;;;10.48;4.88;;;3.20;99.90;;;;;;5089549;28;20052;-69
2021/01/19 10:35:26;;;;;;;9.20;4.85;;;3.20;99.90;;;;;;5088337;28;20131;-65
2021/01/19 10:37:56;;;;;;;10.07;4.90;;;3.30;99.90;;;;;;5089004;28;20051;-67
2021/01/19 10:40:22;;;;;;;10.50;4.65;;;3.30;99.90;;;;;;5086945;28;20087;-68
2021/01/19 10:42:49;;;;;;;9.05;5.28;;;3.40;99.90;;;;;;5088769;28;20054;-66
2021/01/19 10:45:27;;;;;;;10.77;5.65;;;3.40;99.90;;;;;;5087732;28;20054;-65
2021/01/19 10:47:55;;;;;;;17.40;5.03;;;3.40;99.90;;;;;;5088917;28;20044;-67
2021/01/19 10:50:29;;;;;;;9.57;4.82;;;3.50;99.90;;;;;;5082781;28;20067;-67
2021/01/19 10:53:01;;;;;;;15.40;5.45;;;3.40;99.90;;;;;;5089110;28;20434;-67
2021/01/19 10:55:33;;;;;;;10.65;4.95;;;3.30;99.90;;;;;;5089071;28;20075;-67
2021/01/19 10:58:02;;;;;;;7.70;4.68;;;3.30;99.90;;;;;;5089076;28;20044;-68
2021/01/19 11:00:29;;;;;;;12.02;5.25;;;3.20;99.90;;;;;;5089714;28;20478;-70
2021/01/19 11:02:56;;;;;;;10.82;5.13;;;3.20;99.90;;;;;;5092236;28;20052;-67
2021/01/19 11:05:24;;;;;;;18.23;5.47;;;3.10;99.90;;;;;;5093310;28;20040;-68
2021/01/19 11:07:52;;;;;;;11.63;5.28;;;3.10;99.90;;;;;;5092334;28;20044;-66
2021/01/19 11:10:21;;;;;;;11.40;5.65;;;2.90;99.90;;;;;;5093065;28;20059;-66
2021/01/19 11:12:48;;;;;;;10.07;4.97;;;3.00;99.90;;;;;;5079061;28;20048;-66
2021/01/19 11:15:15;;;;;;;9.60;5.18;;;3.00;99.90;;;;;;5087464;28;20055;-66
2021/01/19 11:17:42;;;;;;;11.98;5.20;;;2.90;99.90;;;;;;5092316;28;20048;-66
2021/01/19 11:20:12;;;;;;;13.52;5.50;;;3.00;99.90;;;;;;5092889;28;20044;-66
2021/01/19 11:22:43;;;;;;;10.73;5.05;;;2.90;99.90;;;;;;5088995;28;20040;-69
2021/01/19 11:25:10;;;;;;;12.90;5.60;;;2.90;99.90;;;;;;5090378;28;20040;-65
2021/01/19 11:27:36;;;;;;;10.50;5.70;;;3.00;99.90;;;;;;5092300;28;20059;-66
2021/01/19 11:30:03;;;;;;;11.02;5.22;;;2.90;99.90;;;;;;5093245;28;20417;-68
2021/01/19 11:32:30;;;;;;;10.27;5.47;;;2.90;99.90;;;;;;5092538;28;20048;-66
2021/01/19 11:34:56;;;;;;;11.57;5.38;;;2.90;99.90;;;;;;5094536;28;20464;-66
2021/01/19 11:37:24;;;;;;;11.40;5.47;;;2.80;99.90;;;;;;5093138;28;20052;-66
2021/01/19 11:39:50;;;;;;;14.82;6.65;;;2.80;99.90;;;;;;5091623;28;20052;-66
2021/01/19 11:42:17;;;;;;;12.23;5.60;;;2.80;99.90;;;;;;5090376;28;20052;-65
2021/01/19 11:44:43;;;;;;;10.65;5.75;;;2.80;99.90;;;;;;5091620;28;20058;-67
2021/01/19 11:47:10;;;;;;;13.55;5.97;;;2.70;99.90;;;;;;5092825;28;20048;-67
2021/01/19 11:49:46;;;;;;;9.68;5.53;;;2.80;99.90;;;;;;5085166;28;20538;-66
2021/01/19 11:52:16;;;;;;;10.65;5.60;;;2.80;99.90;;;;;;5084110;28;20051;-66
2021/01/19 11:54:42;;;;;;;12.48;6.10;;;2.70;99.90;;;;;;5091229;28;20048;-65
2021/01/19 11:57:09;;;;;;;11.80;6.20;;;2.70;99.90;;;;;;5091392;28;20048;-66
2021/01/19 11:59:35;;;;;;;12.68;5.80;;;2.60;99.90;;;;;;5092053;28;20048;-66
2021/01/19 12:02:01;;;;;;;14.15;6.40;;;2.60;99.90;;;;;;5086517;28;20059;-65
2021/01/19 12:04:28;;;;;;;15.80;7.10;;;2.70;99.90;;;;;;5091637;28;20052;-66
2021/01/19 12:06:58;;;;;;;14.13;6.78;;;2.60;99.90;;;;;;5074129;28;20040;-66
2021/01/19 12:09:25;;;;;;;12.73;6.65;;;2.40;99.90;;;;;;5091081;28;20056;-66
2021/01/19 12:11:54;;;;;;;16.25;7.03;;;2.40;99.90;;;;;;5076002;28;20125;-68
2021/01/19 12:14:24;;;;;;;17.48;6.72;;;2.40;99.90;;;;;;5090256;28;20059;-66
2021/01/19 12:16:57;;;;;;;13.65;6.63;;;2.40;99.90;;;;;;5089849;28;20822;-66
2021/01/19 12:19:25;;;;;;;13.48;7.00;;;2.40;99.90;;;;;;5084405;28;20048;-67
2021/01/19 12:21:53;;;;;;;12.43;6.68;;;2.30;99.90;;;;;;5091094;28;20440;-66
2021/01/19 12:24:21;;;;;;;12.90;7.57;;;2.30;99.90;;;;;;5107392;28;20048;-65
2021/01/19 12:26:51;;;;;;;15.57;7.95;;;2.40;99.90;;;;;;5091260;28;20110;-66
2021/01/19 12:29:19;;;;;;;13.45;7.47;;;2.30;99.90;;;;;;5091938;28;20109;-67
2021/01/19 12:31:47;;;;;;;14.93;7.40;;;2.30;99.90;;;;;;5091267;28;20055;-66
2021/01/19 12:34:15;;;;;;;18.70;8.07;;;2.30;99.90;;;;;;5091013;28;20566;-66
2021/01/19 12:36:42;;;;;;;17.08;7.93;;;2.20;99.90;;;;;;5089696;28;20102;-65
2021/01/19 12:39:08;;;;;;;15.90;8.45;;;2.20;99.90;;;;;;5090402;28;20524;-67
2021/01/19 12:41:35;;;;;;;16.83;8.10;;;2.10;99.90;;;;;;5089462;28;20055;-65
2021/01/19 12:44:03;;;;;;;13.80;7.35;;;2.10;99.90;;;;;;5090771;28;20052;-66
2021/01/19 12:46:30;;;;;;;15.13;8.20;;;2.00;99.90;;;;;;5090635;28;20051;-67
2021/01/19 12:48:57;;;;;;;14.52;8.18;;;2.00;99.90;;;;;;5085234;28;20090;-66
2021/01/19 12:51:25;;;;;;;18.73;8.90;;;2.00;99.90;;;;;;5089539;28;20086;-66
2021/01/19 12:53:52;;;;;;;18.50;8.38;;;1.90;99.90;;;;;;5076520;28;20044;-67
2021/01/19 12:56:20;;;;;;;14.32;7.82;;;1.90;99.90;;;;;;5089806;28;20564;-67
2021/01/19 12:58:47;;;;;;;18.92;7.72;;;1.80;99.90;;;;;;5088448;28;20574;-65
2021/01/19 13:01:14;;;;;;;19.80;8.35;;;1.80;99.90;;;;;;5090114;28;20054;-65
2021/01/19 13:03:42;;;;;;;15.23;7.25;;;1.80;99.90;;;;;;5090550;28;20044;-66
2021/01/19 13:06:10;;;;;;;15.05;7.57;;;1.80;99.90;;;;;;5090025;28;20046;-66
2021/01/19 13:08:38;;;;;;;19.08;8.13;;;1.90;99.90;;;;;;5091106;28;20447;-66
2021/01/19 13:11:05;;;;;;;14.05;7.60;;;2.00;99.90;;;;;;5088690;28;20044;-64